< < Back
Terminal Aerodrome Forecast


Current Version              Previous Versions:   1  2  3  4  5  6  7  8  9  

Terminal Aerodrome Forecast

918
FTUS44 KBMX 271435 AAA
TAFTCL
TAF AMD
KTCL 271435Z 2715/2812 16007KT P6SM BKN008
     FM271530 16007KT P6SM BKN015
     FM271700 18006KT P6SM -SHRA VCTS FEW025 BKN035CB
      TEMPO 2720/2724 2SM TSRA SCT015 BKN025CB
     FM280100 VRB03KT P6SM BKN120=

Latest METAR

897
SAUS70 KWBC 272000
MTRTCL
METAR KTCL 271953Z 12007KT 090V170 10SM FEW036 29/21 A3011 RMK AO2
SLP192 T02940206


USA.gov is the U.S. government's official web portal to all federal, state and local government web resources and services.